sensor_id;sensor_type;location;lat;lon;timestamp;P1;durP1;ratioP1;P2;durP2;ratioP2
22382;SDS011;11359;45.802;13.530;2023-03-11T00:00:20;0.73;;;0.50;;
22382;SDS011;11359;45.802;13.530;2023-03-11T00:02:49;0.40;;;0.40;;
22382;SDS011;11359;45.802;13.530;2023-03-11T00:05:17;0.85;;;0.60;;
22382;SDS011;11359;45.802;13.530;2023-03-11T00:07:45;0.63;;;0.50;;
22382;SDS011;11359;45.802;13.530;2023-03-11T00:10:14;0.82;;;0.60;;
22382;SDS011;11359;45.802;13.530;2023-03-11T00:12:44;0.65;;;0.50;;
22382;SDS011;11359;45.802;13.530;2023-03-11T00:15:10;0.30;;;0.30;;
22382;SDS011;11359;45.802;13.530;2023-03-11T00:17:36;1.58;;;0.65;;
22382;SDS011;11359;45.802;13.530;2023-03-11T00:20:03;0.45;;;0.40;;
22382;SDS011;11359;45.802;13.530;2023-03-11T00:22:31;0.43;;;0.43;;
22382;SDS011;11359;45.802;13.530;2023-03-11T00:24:56;0.40;;;0.40;;
22382;SDS011;11359;45.802;13.530;2023-03-11T00:27:22;0.60;;;0.50;;
22382;SDS011;11359;45.802;13.530;2023-03-11T00:29:48;0.57;;;0.50;;
22382;SDS011;11359;45.802;13.530;2023-03-11T00:32:13;0.50;;;0.50;;
22382;SDS011;11359;45.802;13.530;2023-03-11T00:34:40;0.45;;;0.40;;
22382;SDS011;11359;45.802;13.530;2023-03-11T00:37:06;0.65;;;0.40;;
22382;SDS011;11359;45.802;13.530;2023-03-11T00:39:32;0.68;;;0.40;;
22382;SDS011;11359;45.802;13.530;2023-03-11T00:41:58;0.50;;;0.40;;
22382;SDS011;11359;45.802;13.530;2023-03-11T00:44:24;1.17;;;0.47;;
22382;SDS011;11359;45.802;13.530;2023-03-11T00:46:50;0.50;;;0.40;;
22382;SDS011;11359;45.802;13.530;2023-03-11T00:49:16;0.80;;;0.50;;
22382;SDS011;11359;45.802;13.530;2023-03-11T00:51:43;0.75;;;0.40;;
22382;SDS011;11359;45.802;13.530;2023-03-11T00:54:08;0.80;;;0.40;;
22382;SDS011;11359;45.802;13.530;2023-03-11T00:56:34;0.40;;;0.40;;
22382;SDS011;11359;45.802;13.530;2023-03-11T00:59:00;0.50;;;0.40;;
22382;SDS011;11359;45.802;13.530;2023-03-11T01:01:26;0.82;;;0.50;;
22382;SDS011;11359;45.802;13.530;2023-03-11T01:03:55;0.60;;;0.50;;
22382;SDS011;11359;45.802;13.530;2023-03-11T01:06:20;0.73;;;0.60;;
22382;SDS011;11359;45.802;13.530;2023-03-11T01:08:46;0.85;;;0.45;;
22382;SDS011;11359;45.802;13.530;2023-03-11T01:11:11;0.30;;;0.30;;
22382;SDS011;11359;45.802;13.530;2023-03-11T01:13:38;0.40;;;0.40;;
22382;SDS011;11359;45.802;13.530;2023-03-11T01:16:04;0.40;;;0.30;;
22382;SDS011;11359;45.802;13.530;2023-03-11T01:18:31;0.40;;;0.40;;
22382;SDS011;11359;45.802;13.530;2023-03-11T01:20:57;0.75;;;0.40;;
22382;SDS011;11359;45.802;13.530;2023-03-11T01:23:23;0.38;;;0.30;;
22382;SDS011;11359;45.802;13.530;2023-03-11T01:25:49;0.55;;;0.40;;
22382;SDS011;11359;45.802;13.530;2023-03-11T01:28:15;0.30;;;0.30;;
22382;SDS011;11359;45.802;13.530;2023-03-11T01:30:41;0.32;;;0.32;;
22382;SDS011;11359;45.802;13.530;2023-03-11T01:33:10;0.63;;;0.40;;
22382;SDS011;11359;45.802;13.530;2023-03-11T01:38:24;0.38;;;0.38;;
22382;SDS011;11359;45.802;13.530;2023-03-11T01:40:50;0.40;;;0.40;;
22382;SDS011;11359;45.802;13.530;2023-03-11T01:46:24;0.40;;;0.40;;
22382;SDS011;11359;45.802;13.530;2023-03-11T01:48:54;0.30;;;0.30;;
22382;SDS011;11359;45.802;13.530;2023-03-11T01:51:42;0.40;;;0.40;;
22382;SDS011;11359;45.802;13.530;2023-03-11T01:54:49;0.45;;;0.32;;
22382;SDS011;11359;45.802;13.530;2023-03-11T01:56:57;0.30;;;0.30;;
22382;SDS011;11359;45.802;13.530;2023-03-11T01:59:26;0.30;;;0.30;;
22382;SDS011;11359;45.802;13.530;2023-03-11T02:04:40;0.47;;;0.40;;
22382;SDS011;11359;45.802;13.530;2023-03-11T02:07:06;1.17;;;0.40;;
22382;SDS011;11359;45.802;13.530;2023-03-11T02:09:37;0.30;;;0.30;;
22382;SDS011;11359;45.802;13.530;2023-03-11T02:12:03;0.30;;;0.30;;
22382;SDS011;11359;45.802;13.530;2023-03-11T02:14:30;0.30;;;0.30;;
22382;SDS011;11359;45.802;13.530;2023-03-11T02:16:57;0.30;;;0.30;;
22382;SDS011;11359;45.802;13.530;2023-03-11T02:22:05;0.47;;;0.35;;
22382;SDS011;11359;45.802;13.530;2023-03-11T02:27:37;0.85;;;0.52;;
22382;SDS011;11359;45.802;13.530;2023-03-11T02:30:07;0.65;;;0.40;;
22382;SDS011;11359;45.802;13.530;2023-03-11T02:32:34;0.40;;;0.40;;
22382;SDS011;11359;45.802;13.530;2023-03-11T02:35:01;0.95;;;0.60;;
22382;SDS011;11359;45.802;13.530;2023-03-11T02:37:27;0.50;;;0.50;;
22382;SDS011;11359;45.802;13.530;2023-03-11T02:39:53;0.68;;;0.30;;
22382;SDS011;11359;45.802;13.530;2023-03-11T02:42:24;0.60;;;0.40;;
22382;SDS011;11359;45.802;13.530;2023-03-11T02:47:33;0.65;;;0.30;;
22382;SDS011;11359;45.802;13.530;2023-03-11T02:50:01;0.60;;;0.35;;
22382;SDS011;11359;45.802;13.530;2023-03-11T02:52:27;0.40;;;0.40;;
22382;SDS011;11359;45.802;13.530;2023-03-11T02:54:53;0.40;;;0.40;;
22382;SDS011;11359;45.802;13.530;2023-03-11T02:57:19;0.40;;;0.30;;
22382;SDS011;11359;45.802;13.530;2023-03-11T02:59:45;0.40;;;0.40;;
22382;SDS011;11359;45.802;13.530;2023-03-11T03:02:10;0.32;;;0.32;;
22382;SDS011;11359;45.802;13.530;2023-03-11T03:04:36;0.45;;;0.40;;
22382;SDS011;11359;45.802;13.530;2023-03-11T03:07:03;0.40;;;0.40;;
22382;SDS011;11359;45.802;13.530;2023-03-11T03:09:28;0.52;;;0.40;;
22382;SDS011;11359;45.802;13.530;2023-03-11T03:11:54;0.82;;;0.30;;
22382;SDS011;11359;45.802;13.530;2023-03-11T03:14:19;0.68;;;0.40;;
22382;SDS011;11359;45.802;13.530;2023-03-11T03:16:45;1.10;;;0.40;;
22382;SDS011;11359;45.802;13.530;2023-03-11T03:19:11;0.52;;;0.40;;
22382;SDS011;11359;45.802;13.530;2023-03-11T03:21:36;0.30;;;0.30;;
22382;SDS011;11359;45.802;13.530;2023-03-11T03:24:02;0.43;;;0.40;;
22382;SDS011;11359;45.802;13.530;2023-03-11T03:26:28;0.40;;;0.40;;
22382;SDS011;11359;45.802;13.530;2023-03-11T03:28:54;1.05;;;0.30;;
22382;SDS011;11359;45.802;13.530;2023-03-11T03:31:19;0.70;;;0.40;;
22382;SDS011;11359;45.802;13.530;2023-03-11T03:33:45;0.57;;;0.52;;
22382;SDS011;11359;45.802;13.530;2023-03-11T03:36:11;0.73;;;0.40;;
22382;SDS011;11359;45.802;13.530;2023-03-11T03:38:38;0.35;;;0.35;;
22382;SDS011;11359;45.802;13.530;2023-03-11T03:41:04;0.50;;;0.50;;
22382;SDS011;11359;45.802;13.530;2023-03-11T03:43:30;0.65;;;0.30;;
22382;SDS011;11359;45.802;13.530;2023-03-11T03:45:56;0.30;;;0.30;;
22382;SDS011;11359;45.802;13.530;2023-03-11T03:48:27;0.50;;;0.30;;
22382;SDS011;11359;45.802;13.530;2023-03-11T03:50:53;0.30;;;0.30;;
22382;SDS011;11359;45.802;13.530;2023-03-11T03:53:19;0.50;;;0.40;;
22382;SDS011;11359;45.802;13.530;2023-03-11T03:55:45;0.30;;;0.30;;
22382;SDS011;11359;45.802;13.530;2023-03-11T03:58:11;0.50;;;0.40;;
22382;SDS011;11359;45.802;13.530;2023-03-11T04:00:37;0.40;;;0.40;;
22382;SDS011;11359;45.802;13.530;2023-03-11T04:03:03;0.30;;;0.30;;
22382;SDS011;11359;45.802;13.530;2023-03-11T04:05:29;0.55;;;0.40;;
22382;SDS011;11359;45.802;13.530;2023-03-11T04:07:55;0.75;;;0.40;;
22382;SDS011;11359;45.802;13.530;2023-03-11T04:10:21;1.27;;;0.40;;
22382;SDS011;11359;45.802;13.530;2023-03-11T04:12:47;0.80;;;0.30;;
22382;SDS011;11359;45.802;13.530;2023-03-11T04:15:12;0.30;;;0.30;;
22382;SDS011;11359;45.802;13.530;2023-03-11T04:17:38;0.40;;;0.40;;
22382;SDS011;11359;45.802;13.530;2023-03-11T04:20:04;0.40;;;0.40;;
22382;SDS011;11359;45.802;13.530;2023-03-11T04:22:32;0.65;;;0.40;;
22382;SDS011;11359;45.802;13.530;2023-03-11T04:24:58;0.30;;;0.30;;
22382;SDS011;11359;45.802;13.530;2023-03-11T04:27:24;0.43;;;0.30;;
22382;SDS011;11359;45.802;13.530;2023-03-11T04:29:49;0.30;;;0.30;;
22382;SDS011;11359;45.802;13.530;2023-03-11T04:32:15;0.30;;;0.30;;
22382;SDS011;11359;45.802;13.530;2023-03-11T04:34:41;0.40;;;0.40;;
22382;SDS011;11359;45.802;13.530;2023-03-11T04:37:07;0.45;;;0.38;;
22382;SDS011;11359;45.802;13.530;2023-03-11T04:39:33;0.43;;;0.40;;
22382;SDS011;11359;45.802;13.530;2023-03-11T04:41:58;0.55;;;0.40;;
22382;SDS011;11359;45.802;13.530;2023-03-11T04:44:24;0.52;;;0.38;;
22382;SDS011;11359;45.802;13.530;2023-03-11T04:46:50;0.30;;;0.30;;
22382;SDS011;11359;45.802;13.530;2023-03-11T04:49:16;0.40;;;0.40;;
22382;SDS011;11359;45.802;13.530;2023-03-11T04:51:43;0.50;;;0.40;;
22382;SDS011;11359;45.802;13.530;2023-03-11T04:54:10;0.50;;;0.43;;
22382;SDS011;11359;45.802;13.530;2023-03-11T04:56:35;0.38;;;0.38;;
22382;SDS011;11359;45.802;13.530;2023-03-11T04:59:01;0.75;;;0.68;;
22382;SDS011;11359;45.802;13.530;2023-03-11T05:01:27;0.40;;;0.40;;
22382;SDS011;11359;45.802;13.530;2023-03-11T05:03:53;0.30;;;0.30;;
22382;SDS011;11359;45.802;13.530;2023-03-11T05:06:19;0.50;;;0.40;;
22382;SDS011;11359;45.802;13.530;2023-03-11T05:08:44;0.65;;;0.30;;
22382;SDS011;11359;45.802;13.530;2023-03-11T05:11:10;0.40;;;0.40;;
22382;SDS011;11359;45.802;13.530;2023-03-11T05:13:35;0.45;;;0.40;;
22382;SDS011;11359;45.802;13.530;2023-03-11T05:16:01;0.68;;;0.40;;
22382;SDS011;11359;45.802;13.530;2023-03-11T05:18:27;0.52;;;0.40;;
22382;SDS011;11359;45.802;13.530;2023-03-11T05:20:54;0.40;;;0.40;;
22382;SDS011;11359;45.802;13.530;2023-03-11T05:23:20;0.63;;;0.50;;
22382;SDS011;11359;45.802;13.530;2023-03-11T05:25:46;0.90;;;0.50;;
22382;SDS011;11359;45.802;13.530;2023-03-11T05:28:11;0.70;;;0.50;;
22382;SDS011;11359;45.802;13.530;2023-03-11T05:30:37;0.68;;;0.50;;
22382;SDS011;11359;45.802;13.530;2023-03-11T05:33:03;0.40;;;0.40;;
22382;SDS011;11359;45.802;13.530;2023-03-11T05:35:29;0.60;;;0.40;;
22382;SDS011;11359;45.802;13.530;2023-03-11T05:37:54;0.73;;;0.50;;
22382;SDS011;11359;45.802;13.530;2023-03-11T05:40:20;0.50;;;0.50;;
22382;SDS011;11359;45.802;13.530;2023-03-11T05:42:46;0.70;;;0.50;;
22382;SDS011;11359;45.802;13.530;2023-03-11T05:45:12;0.50;;;0.40;;
22382;SDS011;11359;45.802;13.530;2023-03-11T05:47:41;0.60;;;0.60;;
22382;SDS011;11359;45.802;13.530;2023-03-11T05:50:07;0.60;;;0.60;;
22382;SDS011;11359;45.802;13.530;2023-03-11T05:52:34;0.70;;;0.40;;
22382;SDS011;11359;45.802;13.530;2023-03-11T05:55:00;0.50;;;0.50;;
22382;SDS011;11359;45.802;13.530;2023-03-11T05:57:25;0.40;;;0.40;;
22382;SDS011;11359;45.802;13.530;2023-03-11T05:59:52;0.50;;;0.50;;
22382;SDS011;11359;45.802;13.530;2023-03-11T06:02:18;0.55;;;0.50;;
22382;SDS011;11359;45.802;13.530;2023-03-11T06:04:48;1.15;;;0.63;;
22382;SDS011;11359;45.802;13.530;2023-03-11T06:07:13;0.77;;;0.63;;
22382;SDS011;11359;45.802;13.530;2023-03-11T06:09:40;0.57;;;0.57;;
22382;SDS011;11359;45.802;13.530;2023-03-11T06:12:06;0.90;;;0.70;;
22382;SDS011;11359;45.802;13.530;2023-03-11T06:14:32;0.50;;;0.50;;
22382;SDS011;11359;45.802;13.530;2023-03-11T06:16:58;0.80;;;0.70;;
22382;SDS011;11359;45.802;13.530;2023-03-11T06:19:24;1.02;;;0.85;;
22382;SDS011;11359;45.802;13.530;2023-03-11T06:21:50;0.90;;;0.73;;
22382;SDS011;11359;45.802;13.530;2023-03-11T06:24:16;1.45;;;0.70;;
22382;SDS011;11359;45.802;13.530;2023-03-11T06:26:42;0.60;;;0.60;;
22382;SDS011;11359;45.802;13.530;2023-03-11T06:29:10;1.25;;;0.70;;
22382;SDS011;11359;45.802;13.530;2023-03-11T06:31:37;0.52;;;0.50;;
22382;SDS011;11359;45.802;13.530;2023-03-11T06:34:04;0.50;;;0.50;;
22382;SDS011;11359;45.802;13.530;2023-03-11T06:36:30;0.60;;;0.50;;
22382;SDS011;11359;45.802;13.530;2023-03-11T06:38:57;0.82;;;0.65;;
22382;SDS011;11359;45.802;13.530;2023-03-11T06:41:22;0.88;;;0.73;;
22382;SDS011;11359;45.802;13.530;2023-03-11T06:43:49;1.23;;;0.70;;
22382;SDS011;11359;45.802;13.530;2023-03-11T06:46:16;0.98;;;0.80;;
22382;SDS011;11359;45.802;13.530;2023-03-11T06:48:44;1.10;;;0.80;;
22382;SDS011;11359;45.802;13.530;2023-03-11T06:51:10;1.42;;;0.60;;
22382;SDS011;11359;45.802;13.530;2023-03-11T06:53:37;1.27;;;0.73;;
22382;SDS011;11359;45.802;13.530;2023-03-11T06:56:10;0.85;;;0.80;;
22382;SDS011;11359;45.802;13.530;2023-03-11T06:58:38;0.63;;;0.63;;
22382;SDS011;11359;45.802;13.530;2023-03-11T07:03:44;0.60;;;0.60;;
22382;SDS011;11359;45.802;13.530;2023-03-11T07:06:15;0.50;;;0.50;;
22382;SDS011;11359;45.802;13.530;2023-03-11T07:08:42;0.40;;;0.40;;
22382;SDS011;11359;45.802;13.530;2023-03-11T07:11:13;0.50;;;0.50;;
22382;SDS011;11359;45.802;13.530;2023-03-11T07:13:41;0.60;;;0.40;;
22382;SDS011;11359;45.802;13.530;2023-03-11T07:16:08;1.70;;;0.73;;
22382;SDS011;11359;45.802;13.530;2023-03-11T07:18:36;0.70;;;0.50;;
22382;SDS011;11359;45.802;13.530;2023-03-11T07:21:03;0.80;;;0.60;;
22382;SDS011;11359;45.802;13.530;2023-03-11T07:23:30;0.52;;;0.50;;
22382;SDS011;11359;45.802;13.530;2023-03-11T07:25:56;0.88;;;0.50;;
22382;SDS011;11359;45.802;13.530;2023-03-11T07:28:26;0.50;;;0.50;;
22382;SDS011;11359;45.802;13.530;2023-03-11T07:30:52;1.58;;;0.50;;
22382;SDS011;11359;45.802;13.530;2023-03-11T07:33:18;0.73;;;0.50;;
22382;SDS011;11359;45.802;13.530;2023-03-11T07:35:46;1.20;;;0.60;;
22382;SDS011;11359;45.802;13.530;2023-03-11T07:38:13;0.40;;;0.40;;
22382;SDS011;11359;45.802;13.530;2023-03-11T07:40:40;0.60;;;0.50;;
22382;SDS011;11359;45.802;13.530;2023-03-11T07:43:06;1.30;;;0.45;;
22382;SDS011;11359;45.802;13.530;2023-03-11T07:45:32;0.40;;;0.40;;
22382;SDS011;11359;45.802;13.530;2023-03-11T07:47:57;0.60;;;0.40;;
22382;SDS011;11359;45.802;13.530;2023-03-11T07:50:23;0.40;;;0.40;;
22382;SDS011;11359;45.802;13.530;2023-03-11T07:52:49;0.50;;;0.50;;
22382;SDS011;11359;45.802;13.530;2023-03-11T07:55:14;0.43;;;0.43;;
22382;SDS011;11359;45.802;13.530;2023-03-11T07:57:40;1.05;;;0.50;;
22382;SDS011;11359;45.802;13.530;2023-03-11T08:00:07;0.40;;;0.40;;
22382;SDS011;11359;45.802;13.530;2023-03-11T08:02:34;0.93;;;0.52;;
22382;SDS011;11359;45.802;13.530;2023-03-11T08:04:59;0.90;;;0.50;;
22382;SDS011;11359;45.802;13.530;2023-03-11T08:07:25;0.60;;;0.55;;
22382;SDS011;11359;45.802;13.530;2023-03-11T08:09:51;0.65;;;0.60;;
22382;SDS011;11359;45.802;13.530;2023-03-11T08:12:16;0.88;;;0.55;;
22382;SDS011;11359;45.802;13.530;2023-03-11T08:14:42;0.75;;;0.68;;
22382;SDS011;11359;45.802;13.530;2023-03-11T08:17:08;1.35;;;0.57;;
22382;SDS011;11359;45.802;13.530;2023-03-11T08:19:34;0.60;;;0.50;;
22382;SDS011;11359;45.802;13.530;2023-03-11T08:22:01;1.08;;;0.60;;
22382;SDS011;11359;45.802;13.530;2023-03-11T08:24:27;0.77;;;0.60;;
22382;SDS011;11359;45.802;13.530;2023-03-11T08:26:53;1.02;;;0.80;;
22382;SDS011;11359;45.802;13.530;2023-03-11T08:29:19;0.70;;;0.55;;
22382;SDS011;11359;45.802;13.530;2023-03-11T08:31:45;0.82;;;0.60;;
22382;SDS011;11359;45.802;13.530;2023-03-11T08:34:11;0.65;;;0.60;;
22382;SDS011;11359;45.802;13.530;2023-03-11T08:36:37;0.60;;;0.55;;
22382;SDS011;11359;45.802;13.530;2023-03-11T08:39:03;0.98;;;0.60;;
22382;SDS011;11359;45.802;13.530;2023-03-11T08:41:29;0.70;;;0.50;;
22382;SDS011;11359;45.802;13.530;2023-03-11T08:43:55;0.88;;;0.60;;
22382;SDS011;11359;45.802;13.530;2023-03-11T08:46:28;0.70;;;0.50;;
22382;SDS011;11359;45.802;13.530;2023-03-11T08:48:58;1.20;;;1.02;;
22382;SDS011;11359;45.802;13.530;2023-03-11T08:51:25;1.70;;;1.05;;
22382;SDS011;11359;45.802;13.530;2023-03-11T08:53:52;1.30;;;1.00;;
22382;SDS011;11359;45.802;13.530;2023-03-11T08:56:18;1.30;;;1.00;;
22382;SDS011;11359;45.802;13.530;2023-03-11T08:58:44;1.67;;;0.88;;
22382;SDS011;11359;45.802;13.530;2023-03-11T09:01:11;0.73;;;0.73;;
22382;SDS011;11359;45.802;13.530;2023-03-11T09:03:37;0.80;;;0.60;;
22382;SDS011;11359;45.802;13.530;2023-03-11T09:06:05;1.15;;;0.70;;
22382;SDS011;11359;45.802;13.530;2023-03-11T09:08:33;1.42;;;0.80;;
22382;SDS011;11359;45.802;13.530;2023-03-11T09:10:59;0.85;;;0.70;;
22382;SDS011;11359;45.802;13.530;2023-03-11T09:13:25;0.70;;;0.70;;
22382;SDS011;11359;45.802;13.530;2023-03-11T09:15:52;0.95;;;0.60;;
22382;SDS011;11359;45.802;13.530;2023-03-11T09:18:18;0.57;;;0.57;;
22382;SDS011;11359;45.802;13.530;2023-03-11T09:20:44;0.63;;;0.50;;
22382;SDS011;11359;45.802;13.530;2023-03-11T09:23:11;0.98;;;0.70;;
22382;SDS011;11359;45.802;13.530;2023-03-11T09:25:38;0.70;;;0.52;;
22382;SDS011;11359;45.802;13.530;2023-03-11T09:28:04;0.80;;;0.70;;
22382;SDS011;11359;45.802;13.530;2023-03-11T09:30:30;0.63;;;0.50;;
22382;SDS011;11359;45.802;13.530;2023-03-11T09:32:56;0.93;;;0.52;;
22382;SDS011;11359;45.802;13.530;2023-03-11T09:35:21;1.38;;;0.50;;
22382;SDS011;11359;45.802;13.530;2023-03-11T09:37:47;0.80;;;0.63;;
22382;SDS011;11359;45.802;13.530;2023-03-11T09:40:15;1.50;;;0.65;;
22382;SDS011;11359;45.802;13.530;2023-03-11T09:46:03;1.33;;;0.88;;
22382;SDS011;11359;45.802;13.530;2023-03-11T09:48:47;0.85;;;0.57;;
22382;SDS011;11359;45.802;13.530;2023-03-11T09:51:38;1.70;;;0.85;;
22382;SDS011;11359;45.802;13.530;2023-03-11T09:56:37;1.02;;;0.60;;
22382;SDS011;11359;45.802;13.530;2023-03-11T09:59:05;0.60;;;0.50;;
22382;SDS011;11359;45.802;13.530;2023-03-11T10:01:41;0.93;;;0.57;;
22382;SDS011;11359;45.802;13.530;2023-03-11T10:06:51;1.40;;;0.55;;
22382;SDS011;11359;45.802;13.530;2023-03-11T10:09:34;0.88;;;0.60;;
22382;SDS011;11359;45.802;13.530;2023-03-11T10:20:29;0.95;;;0.73;;
22382;SDS011;11359;45.802;13.530;2023-03-11T10:28:44;1.25;;;0.60;;
22382;SDS011;11359;45.802;13.530;2023-03-11T10:31:26;1.15;;;0.80;;
22382;SDS011;11359;45.802;13.530;2023-03-11T10:37:20;1.70;;;0.70;;
22382;SDS011;11359;45.802;13.530;2023-03-11T10:39:28;1.33;;;0.65;;
22382;SDS011;11359;45.802;13.530;2023-03-11T10:42:01;1.08;;;0.60;;
22382;SDS011;11359;45.802;13.530;2023-03-11T10:44:31;0.65;;;0.50;;
22382;SDS011;11359;45.802;13.530;2023-03-11T10:46:59;1.00;;;0.63;;
22382;SDS011;11359;45.802;13.530;2023-03-11T10:49:25;0.80;;;0.50;;
22382;SDS011;11359;45.802;13.530;2023-03-11T10:51:53;1.08;;;0.80;;
22382;SDS011;11359;45.802;13.530;2023-03-11T10:56:59;0.73;;;0.55;;
22382;SDS011;11359;45.802;13.530;2023-03-11T10:59:31;0.45;;;0.40;;
22382;SDS011;11359;45.802;13.530;2023-03-11T11:02:20;0.95;;;0.50;;
22382;SDS011;11359;45.802;13.530;2023-03-11T11:04:47;0.90;;;0.60;;
22382;SDS011;11359;45.802;13.530;2023-03-11T11:07:36;0.80;;;0.50;;
22382;SDS011;11359;45.802;13.530;2023-03-11T11:10:12;1.10;;;0.50;;
22382;SDS011;11359;45.802;13.530;2023-03-11T11:15:54;1.42;;;0.52;;
22382;SDS011;11359;45.802;13.530;2023-03-11T11:18:26;0.93;;;0.60;;
22382;SDS011;11359;45.802;13.530;2023-03-11T11:21:08;0.80;;;0.60;;
22382;SDS011;11359;45.802;13.530;2023-03-11T11:23:41;1.17;;;0.68;;
22382;SDS011;11359;45.802;13.530;2023-03-11T11:26:20;1.23;;;0.75;;
22382;SDS011;11359;45.802;13.530;2023-03-11T11:31:36;1.38;;;0.70;;
22382;SDS011;11359;45.802;13.530;2023-03-11T11:34:21;0.77;;;0.60;;
22382;SDS011;11359;45.802;13.530;2023-03-11T11:37:00;0.93;;;0.70;;
22382;SDS011;11359;45.802;13.530;2023-03-11T11:39:35;0.98;;;0.60;;
22382;SDS011;11359;45.802;13.530;2023-03-11T11:42:16;1.20;;;0.60;;
22382;SDS011;11359;45.802;13.530;2023-03-11T11:44:45;0.60;;;0.60;;
22382;SDS011;11359;45.802;13.530;2023-03-11T11:47:19;0.70;;;0.60;;
22382;SDS011;11359;45.802;13.530;2023-03-11T11:49:53;0.77;;;0.60;;
22382;SDS011;11359;45.802;13.530;2023-03-11T11:52:26;0.85;;;0.52;;
22382;SDS011;11359;45.802;13.530;2023-03-11T11:55:00;1.02;;;0.50;;
22382;SDS011;11359;45.802;13.530;2023-03-11T12:00:23;0.68;;;0.60;;
22382;SDS011;11359;45.802;13.530;2023-03-11T12:11:48;0.65;;;0.50;;
22382;SDS011;11359;45.802;13.530;2023-03-11T12:14:17;0.60;;;0.50;;
22382;SDS011;11359;45.802;13.530;2023-03-11T12:16:57;0.68;;;0.60;;
22382;SDS011;11359;45.802;13.530;2023-03-11T12:19:33;1.38;;;0.63;;
22382;SDS011;11359;45.802;13.530;2023-03-11T12:25:07;1.35;;;0.70;;
22382;SDS011;11359;45.802;13.530;2023-03-11T12:30:24;0.70;;;0.50;;
22382;SDS011;11359;45.802;13.530;2023-03-11T12:33:10;0.95;;;0.60;;
22382;SDS011;11359;45.802;13.530;2023-03-11T12:35:53;1.20;;;0.70;;
22382;SDS011;11359;45.802;13.530;2023-03-11T12:41:27;1.95;;;0.98;;
22382;SDS011;11359;45.802;13.530;2023-03-11T12:43:56;1.35;;;0.70;;
22382;SDS011;11359;45.802;13.530;2023-03-11T12:49:30;1.20;;;0.88;;
22382;SDS011;11359;45.802;13.530;2023-03-11T12:52:32;1.48;;;0.90;;
22382;SDS011;11359;45.802;13.530;2023-03-11T13:10:47;1.40;;;1.05;;
22382;SDS011;11359;45.802;13.530;2023-03-11T13:15:57;2.33;;;1.00;;
22382;SDS011;11359;45.802;13.530;2023-03-11T13:18:46;1.23;;;0.80;;
22382;SDS011;11359;45.802;13.530;2023-03-11T13:23:51;1.15;;;0.77;;
22382;SDS011;11359;45.802;13.530;2023-03-11T13:26:39;1.20;;;0.70;;
22382;SDS011;11359;45.802;13.530;2023-03-11T13:29:26;2.90;;;1.20;;
22382;SDS011;11359;45.802;13.530;2023-03-11T13:32:11;2.08;;;0.88;;
22382;SDS011;11359;45.802;13.530;2023-03-11T13:40:31;1.42;;;0.80;;
22382;SDS011;11359;45.802;13.530;2023-03-11T13:45:56;2.45;;;0.82;;
22382;SDS011;11359;45.802;13.530;2023-03-11T13:48:36;1.25;;;0.75;;
22382;SDS011;11359;45.802;13.530;2023-03-11T13:51:13;0.80;;;0.60;;
22382;SDS011;11359;45.802;13.530;2023-03-11T13:53:55;2.33;;;0.90;;
22382;SDS011;11359;45.802;13.530;2023-03-11T13:56:53;2.35;;;1.20;;
22382;SDS011;11359;45.802;13.530;2023-03-11T14:01:59;1.30;;;0.75;;
22382;SDS011;11359;45.802;13.530;2023-03-11T14:04:28;0.70;;;0.50;;
22382;SDS011;11359;45.802;13.530;2023-03-11T14:06:59;1.17;;;0.60;;
22382;SDS011;11359;45.802;13.530;2023-03-11T14:09:35;0.75;;;0.50;;
22382;SDS011;11359;45.802;13.530;2023-03-11T14:12:05;1.13;;;0.60;;
22382;SDS011;11359;45.802;13.530;2023-03-11T14:17:26;0.80;;;0.50;;
22382;SDS011;11359;45.802;13.530;2023-03-11T14:22:42;0.82;;;0.50;;
22382;SDS011;11359;45.802;13.530;2023-03-11T14:25:29;1.15;;;0.55;;
22382;SDS011;11359;45.802;13.530;2023-03-11T14:27:59;0.40;;;0.40;;
22382;SDS011;11359;45.802;13.530;2023-03-11T14:30:27;1.15;;;0.50;;
22382;SDS011;11359;45.802;13.530;2023-03-11T14:33:02;1.23;;;0.70;;
22382;SDS011;11359;45.802;13.530;2023-03-11T14:35:30;0.80;;;0.60;;
22382;SDS011;11359;45.802;13.530;2023-03-11T14:37:59;1.00;;;0.60;;
22382;SDS011;11359;45.802;13.530;2023-03-11T14:40:26;1.00;;;0.70;;
22382;SDS011;11359;45.802;13.530;2023-03-11T14:42:55;1.05;;;0.65;;
22382;SDS011;11359;45.802;13.530;2023-03-11T14:45:28;1.20;;;0.68;;
22382;SDS011;11359;45.802;13.530;2023-03-11T14:48:02;0.93;;;0.75;;
22382;SDS011;11359;45.802;13.530;2023-03-11T14:50:33;0.70;;;0.50;;
22382;SDS011;11359;45.802;13.530;2023-03-11T14:55:27;1.10;;;0.73;;
22382;SDS011;11359;45.802;13.530;2023-03-11T15:00:32;0.82;;;0.70;;
22382;SDS011;11359;45.802;13.530;2023-03-11T15:03:25;0.75;;;0.55;;
22382;SDS011;11359;45.802;13.530;2023-03-11T15:08:43;1.23;;;0.63;;
22382;SDS011;11359;45.802;13.530;2023-03-11T15:13:38;0.82;;;0.57;;
22382;SDS011;11359;45.802;13.530;2023-03-11T15:16:07;0.73;;;0.60;;
22382;SDS011;11359;45.802;13.530;2023-03-11T15:18:50;0.93;;;0.63;;
22382;SDS011;11359;45.802;13.530;2023-03-11T15:21:19;0.95;;;0.60;;
22382;SDS011;11359;45.802;13.530;2023-03-11T15:23:59;0.63;;;0.52;;
22382;SDS011;11359;45.802;13.530;2023-03-11T15:26:29;0.70;;;0.50;;
22382;SDS011;11359;45.802;13.530;2023-03-11T15:28:57;0.60;;;0.50;;
22382;SDS011;11359;45.802;13.530;2023-03-11T15:31:30;0.90;;;0.70;;
22382;SDS011;11359;45.802;13.530;2023-03-11T15:34:07;0.77;;;0.50;;
22382;SDS011;11359;45.802;13.530;2023-03-11T15:36:37;0.75;;;0.50;;
22382;SDS011;11359;45.802;13.530;2023-03-11T15:39:18;1.08;;;0.68;;
22382;SDS011;11359;45.802;13.530;2023-03-11T15:44:30;1.20;;;0.68;;
22382;SDS011;11359;45.802;13.530;2023-03-11T15:47:08;0.93;;;0.70;;
22382;SDS011;11359;45.802;13.530;2023-03-11T15:49:37;0.85;;;0.68;;
22382;SDS011;11359;45.802;13.530;2023-03-11T15:52:03;0.60;;;0.50;;
22382;SDS011;11359;45.802;13.530;2023-03-11T15:54:29;1.00;;;0.50;;
22382;SDS011;11359;45.802;13.530;2023-03-11T15:56:55;1.50;;;0.70;;
22382;SDS011;11359;45.802;13.530;2023-03-11T15:59:23;0.60;;;0.40;;
22382;SDS011;11359;45.802;13.530;2023-03-11T16:01:49;0.55;;;0.50;;
22382;SDS011;11359;45.802;13.530;2023-03-11T16:04:16;0.93;;;0.70;;
22382;SDS011;11359;45.802;13.530;2023-03-11T16:06:43;1.63;;;0.80;;
22382;SDS011;11359;45.802;13.530;2023-03-11T16:09:10;0.50;;;0.50;;
22382;SDS011;11359;45.802;13.530;2023-03-11T16:11:36;0.50;;;0.50;;
22382;SDS011;11359;45.802;13.530;2023-03-11T16:14:03;1.05;;;0.50;;
22382;SDS011;11359;45.802;13.530;2023-03-11T16:16:29;0.50;;;0.50;;
22382;SDS011;11359;45.802;13.530;2023-03-11T16:18:55;0.50;;;0.50;;
22382;SDS011;11359;45.802;13.530;2023-03-11T16:21:20;0.47;;;0.45;;
22382;SDS011;11359;45.802;13.530;2023-03-11T16:23:49;0.55;;;0.50;;
22382;SDS011;11359;45.802;13.530;2023-03-11T16:26:15;0.70;;;0.60;;
22382;SDS011;11359;45.802;13.530;2023-03-11T16:28:41;0.47;;;0.47;;
22382;SDS011;11359;45.802;13.530;2023-03-11T16:31:07;0.50;;;0.40;;
22382;SDS011;11359;45.802;13.530;2023-03-11T16:33:33;0.50;;;0.50;;
22382;SDS011;11359;45.802;13.530;2023-03-11T16:36:00;0.40;;;0.40;;
22382;SDS011;11359;45.802;13.530;2023-03-11T16:38:26;0.60;;;0.50;;
22382;SDS011;11359;45.802;13.530;2023-03-11T16:40:59;0.43;;;0.43;;
22382;SDS011;11359;45.802;13.530;2023-03-11T16:43:27;0.63;;;0.55;;
22382;SDS011;11359;45.802;13.530;2023-03-11T16:45:53;0.55;;;0.50;;
22382;SDS011;11359;45.802;13.530;2023-03-11T16:48:20;0.60;;;0.52;;
22382;SDS011;11359;45.802;13.530;2023-03-11T16:50:46;0.90;;;0.50;;